createdAt,value
2022-12-04T00:02:22.743Z,22.53
2022-12-04T00:04:58.164Z,22.33
2022-12-04T00:07:27.680Z,23.27
2022-12-04T00:10:09.111Z,23.97
2022-12-04T00:12:43.917Z,24.63
2022-12-04T00:15:26.948Z,23.27
2022-12-04T00:17:55.416Z,24.93
2022-12-04T00:20:31.094Z,25.47
2022-12-04T00:23:00.459Z,24.03
2022-12-04T00:25:39.449Z,24.27
2022-12-04T00:28:09.291Z,24.73
2022-12-04T00:30:48.086Z,26.67
2022-12-04T00:33:16.201Z,25.93
2022-12-04T00:35:51.098Z,25.20
2022-12-04T00:38:20.498Z,24.37
2022-12-04T00:40:57.101Z,24.33
2022-12-04T00:43:25.608Z,25.77
2022-12-04T00:46:00.176Z,25.57
2022-12-04T00:48:28.323Z,24.47
2022-12-04T00:51:05.096Z,25.30
2022-12-04T00:53:34.685Z,23.90
2022-12-04T00:56:12.096Z,22.97
2022-12-04T00:58:40.653Z,23.43
2022-12-04T01:01:18.188Z,22.90
2022-12-04T01:03:46.555Z,21.87
2022-12-04T01:06:30.148Z,23.03
2022-12-04T01:09:07.311Z,21.77
2022-12-04T01:11:48.123Z,22.43
2022-12-04T01:14:16.158Z,22.07
2022-12-04T01:16:51.196Z,22.93
2022-12-04T01:19:19.399Z,22.53
2022-12-04T01:21:54.168Z,23.37
2022-12-04T01:24:23.606Z,22.13
2022-12-04T01:26:58.172Z,22.63
2022-12-04T01:29:26.161Z,23.37
2022-12-04T01:32:01.206Z,21.73
2022-12-04T01:34:29.274Z,22.80
2022-12-04T01:37:04.156Z,21.90
2022-12-04T01:39:33.634Z,23.00
2022-12-04T01:42:08.141Z,23.53
2022-12-04T01:44:36.216Z,22.83
2022-12-04T01:47:11.184Z,22.77
2022-12-04T01:49:42.458Z,21.50
2022-12-04T01:52:21.172Z,21.57
2022-12-04T01:54:52.979Z,22.43
2022-12-04T01:57:30.175Z,22.03
2022-12-04T02:00:03.242Z,24.23
2022-12-04T02:02:41.191Z,23.57
2022-12-04T02:05:12.651Z,22.47
2022-12-04T02:07:49.213Z,23.00
2022-12-04T02:10:27.296Z,22.63
2022-12-04T02:13:11.216Z,22.13
2022-12-04T02:15:53.226Z,22.17
2022-12-04T02:18:31.167Z,23.37
2022-12-04T02:21:10.193Z,22.57
2022-12-04T02:23:56.800Z,22.17
2022-12-04T02:26:49.201Z,21.73
2022-12-04T02:29:34.319Z,22.33
2022-12-04T02:32:17.193Z,21.70
2022-12-04T02:34:54.737Z,21.80
2022-12-04T02:37:37.262Z,19.30
2022-12-04T02:40:10.495Z,22.00
2022-12-04T02:42:48.181Z,21.43
2022-12-04T02:45:23.400Z,21.07
2022-12-04T02:47:59.220Z,22.17
2022-12-04T02:50:28.663Z,22.00
2022-12-04T02:53:08.264Z,21.90
2022-12-04T02:55:42.080Z,21.33
2022-12-04T02:58:21.230Z,23.03
2022-12-04T03:00:53.112Z,21.63
2022-12-04T03:03:31.199Z,22.63
2022-12-04T03:06:03.928Z,22.30
2022-12-04T03:08:42.206Z,22.47
2022-12-04T03:11:17.370Z,22.63
2022-12-04T03:13:56.215Z,21.73
2022-12-04T03:16:28.875Z,21.23
2022-12-04T03:19:06.249Z,22.40
2022-12-04T03:21:39.071Z,20.83
2022-12-04T03:24:21.232Z,22.77
2022-12-04T03:26:52.294Z,22.43
2022-12-04T03:29:30.222Z,22.83
2022-12-04T03:32:07.311Z,23.23
2022-12-04T03:34:49.257Z,23.23
2022-12-04T03:37:20.069Z,21.93
2022-12-04T03:40:03.300Z,23.67
2022-12-04T03:42:36.954Z,23.23
2022-12-04T03:45:18.263Z,23.37
2022-12-04T03:48:00.463Z,23.03
2022-12-04T03:50:41.278Z,23.00
2022-12-04T03:53:14.154Z,23.70
2022-12-04T03:55:54.310Z,22.30
2022-12-04T03:58:27.013Z,23.87
2022-12-04T04:01:04.382Z,24.50
2022-12-04T04:03:38.003Z,24.20
2022-12-04T04:06:19.280Z,23.37
2022-12-04T04:08:51.424Z,23.60
2022-12-04T04:11:36.300Z,23.80
2022-12-04T04:14:34.117Z,24.77
2022-12-04T04:17:36.593Z,23.93
2022-12-04T04:20:30.419Z,24.17
2022-12-04T04:23:26.301Z,24.40
2022-12-04T04:25:54.620Z,23.53
2022-12-04T04:28:40.311Z,25.03
2022-12-04T04:31:22.830Z,24.90
2022-12-04T04:34:08.291Z,24.93
2022-12-04T04:36:46.558Z,23.90
2022-12-04T04:39:32.299Z,24.47
2022-12-04T04:42:07.677Z,23.80
2022-12-04T04:44:49.315Z,24.90
2022-12-04T04:47:23.393Z,25.80
2022-12-04T04:49:59.333Z,24.77
2022-12-04T04:52:30.192Z,24.67
2022-12-04T04:55:07.331Z,24.50
2022-12-04T04:57:37.386Z,23.20
2022-12-04T05:00:16.318Z,25.03
2022-12-04T05:02:44.783Z,25.73
2022-12-04T05:05:20.338Z,24.93
2022-12-04T05:07:49.792Z,25.53
2022-12-04T05:10:24.358Z,24.70
2022-12-04T05:12:58.730Z,25.87
2022-12-04T05:15:33.379Z,24.93
2022-12-04T05:18:01.457Z,24.83
2022-12-04T05:20:35.363Z,24.63
2022-12-04T05:23:04.811Z,24.93
2022-12-04T05:25:39.334Z,25.20
2022-12-04T05:28:07.462Z,25.30
2022-12-04T05:30:42.346Z,25.77
2022-12-04T05:33:11.359Z,24.97
2022-12-04T05:35:46.360Z,25.20
2022-12-04T05:38:15.815Z,24.13
2022-12-04T05:40:50.374Z,24.47
2022-12-04T05:43:18.409Z,24.00
2022-12-04T05:45:53.350Z,24.13
2022-12-04T05:48:21.666Z,23.57
2022-12-04T05:50:56.371Z,24.53
2022-12-04T05:53:25.879Z,24.70
2022-12-04T05:56:04.359Z,24.33
2022-12-04T05:58:32.452Z,25.10
2022-12-04T06:01:07.378Z,23.23
2022-12-04T06:03:35.517Z,24.27
2022-12-04T06:06:14.860Z,25.47
2022-12-04T06:08:47.043Z,24.70
2022-12-04T06:11:29.408Z,25.33
2022-12-04T06:13:57.711Z,24.33
2022-12-04T06:16:34.438Z,25.83
2022-12-04T06:19:05.436Z,25.13
2022-12-04T06:21:44.404Z,23.80
2022-12-04T06:24:16.067Z,25.37
2022-12-04T06:27:25.713Z,25.10
2022-12-04T06:29:39.432Z,24.93
2022-12-04T06:32:19.633Z,25.00
2022-12-04T06:34:52.523Z,24.97
2022-12-04T06:37:27.451Z,24.57
2022-12-04T06:39:57.119Z,24.70
2022-12-04T06:42:32.416Z,23.83
2022-12-04T06:45:00.447Z,25.10
2022-12-04T06:47:35.418Z,24.83
2022-12-04T06:50:03.730Z,25.30
2022-12-04T06:52:40.428Z,25.97
2022-12-04T06:55:10.462Z,23.33
2022-12-04T06:57:45.400Z,22.27
2022-12-04T07:00:14.164Z,25.17
2022-12-04T07:02:48.478Z,26.03
2022-12-04T07:05:16.712Z,26.33
2022-12-04T07:07:51.544Z,25.60
2022-12-04T07:10:41.413Z,25.10
2022-12-04T07:13:09.761Z,24.20
2022-12-04T07:15:45.430Z,25.27
2022-12-04T07:18:13.492Z,26.17
2022-12-04T07:20:48.438Z,25.43
2022-12-04T07:23:16.475Z,25.10
2022-12-04T07:25:52.472Z,25.03
2022-12-04T07:28:20.624Z,24.37
2022-12-04T07:30:55.460Z,23.97
2022-12-04T07:33:23.503Z,23.90
2022-12-04T07:36:03.482Z,25.17
2022-12-04T07:38:33.248Z,23.67
2022-12-04T07:41:10.508Z,25.00
2022-12-04T07:43:38.598Z,24.97
2022-12-04T07:46:14.611Z,25.63
2022-12-04T07:48:42.880Z,25.70
2022-12-04T07:51:19.506Z,23.07
2022-12-04T07:53:48.208Z,25.50
2022-12-04T07:56:25.520Z,25.00
2022-12-04T07:58:53.635Z,25.97
2022-12-04T08:01:29.581Z,25.77
2022-12-04T08:03:59.822Z,25.53
2022-12-04T08:06:36.560Z,25.07
2022-12-04T08:09:09.834Z,26.57
2022-12-04T08:11:53.511Z,25.33
2022-12-04T08:14:21.567Z,25.73
2022-12-04T08:16:57.560Z,25.07
2022-12-04T08:19:25.836Z,26.73
2022-12-04T08:22:02.526Z,25.43
2022-12-04T08:24:30.611Z,26.57
2022-12-04T08:27:07.518Z,24.30
2022-12-04T08:29:35.662Z,23.20
2022-12-04T08:32:10.506Z,23.80
2022-12-04T08:34:38.610Z,23.77
2022-12-04T08:37:13.511Z,23.33
2022-12-04T08:39:41.581Z,23.83
2022-12-04T08:42:17.524Z,24.53
2022-12-04T08:44:45.570Z,23.40
2022-12-04T08:47:20.510Z,23.27
2022-12-04T08:49:48.632Z,22.43
2022-12-04T08:52:23.544Z,23.20
2022-12-04T08:54:51.770Z,21.73
2022-12-04T08:57:27.532Z,22.07
2022-12-04T08:59:55.830Z,22.80
2022-12-04T09:02:30.538Z,22.10
2022-12-04T09:04:58.725Z,21.90
2022-12-04T09:07:33.545Z,22.40
2022-12-04T09:10:07.731Z,22.03
2022-12-04T09:12:50.540Z,20.77
2022-12-04T09:15:18.799Z,21.20
2022-12-04T09:17:53.561Z,22.07
2022-12-04T09:20:21.629Z,21.37
2022-12-04T09:23:04.976Z,21.77
2022-12-04T09:25:36.147Z,19.90
2022-12-04T09:28:12.565Z,21.00
2022-12-04T09:30:40.741Z,19.83
2022-12-04T09:33:15.533Z,20.30
2022-12-04T09:35:43.614Z,19.20
2022-12-04T09:38:18.555Z,19.00
2022-12-04T09:40:53.615Z,19.23
2022-12-04T09:43:38.551Z,19.57
2022-12-04T09:46:14.088Z,19.87
2022-12-04T09:48:52.598Z,18.63
2022-12-04T09:51:25.065Z,18.83
2022-12-04T09:54:04.576Z,18.60
2022-12-04T09:56:33.805Z,17.87
2022-12-04T09:59:18.635Z,17.17
2022-12-04T10:01:50.238Z,17.70
2022-12-04T10:04:25.663Z,17.27
2022-12-04T10:07:02.131Z,17.07
2022-12-04T10:09:44.588Z,17.10
2022-12-04T10:12:43.586Z,17.33
2022-12-04T10:15:32.586Z,15.53
2022-12-04T10:18:20.345Z,16.90
2022-12-04T10:21:14.603Z,16.43
2022-12-04T10:23:56.308Z,16.27
2022-12-04T10:26:35.647Z,16.03
2022-12-04T10:29:07.591Z,16.17
2022-12-04T10:31:45.664Z,16.87
2022-12-04T10:34:19.241Z,16.37
2022-12-04T10:36:58.639Z,15.23
2022-12-04T10:39:30.965Z,15.50
2022-12-04T10:42:08.615Z,14.17
2022-12-04T10:44:36.787Z,14.90
2022-12-04T10:47:13.730Z,14.00
2022-12-04T10:49:42.536Z,14.40
2022-12-04T10:52:19.632Z,14.60
2022-12-04T10:54:51.173Z,13.83
2022-12-04T10:57:25.617Z,13.43
2022-12-04T10:59:56.180Z,12.93
2022-12-04T11:02:34.853Z,12.63
2022-12-04T11:05:06.366Z,13.30
2022-12-04T11:07:44.688Z,13.67
2022-12-04T11:10:25.221Z,13.63
2022-12-04T11:13:08.642Z,13.50
2022-12-04T11:15:43.123Z,12.83
2022-12-04T11:18:25.622Z,12.90
2022-12-04T11:20:57.012Z,13.07
2022-12-04T11:23:32.629Z,11.33
2022-12-04T11:26:05.848Z,11.97
2022-12-04T11:28:43.077Z,12.43
2022-12-04T11:31:17.724Z,11.07
2022-12-04T11:33:57.654Z,10.90
2022-12-04T11:36:29.703Z,11.43
2022-12-04T11:39:14.650Z,10.73
2022-12-04T11:41:43.165Z,10.67
2022-12-04T11:44:30.682Z,10.30
2022-12-04T11:47:02.957Z,10.37
2022-12-04T11:49:43.729Z,9.73
2022-12-04T11:52:24.191Z,10.07
2022-12-04T11:55:06.654Z,8.87
2022-12-04T11:57:43.160Z,9.10
2022-12-04T12:00:22.681Z,9.43
2022-12-04T12:03:11.188Z,9.40
2022-12-04T12:06:18.680Z,9.73
2022-12-04T12:09:00.965Z,9.20
2022-12-04T12:11:40.698Z,9.40
2022-12-04T12:14:21.612Z,10.47
2022-12-04T12:17:05.689Z,10.00
2022-12-04T12:19:58.829Z,9.77
2022-12-04T12:22:49.715Z,10.07
2022-12-04T12:25:22.115Z,9.73
2022-12-04T12:28:11.689Z,9.80
2022-12-04T12:30:48.145Z,10.23
2022-12-04T12:33:27.683Z,9.73
2022-12-04T12:36:04.329Z,9.17
2022-12-04T12:38:46.691Z,10.00
2022-12-04T12:41:17.447Z,10.00
2022-12-04T12:43:56.722Z,9.30
2022-12-04T12:46:31.308Z,9.80
2022-12-04T12:49:09.714Z,10.13
2022-12-04T12:51:42.514Z,10.60
2022-12-04T12:54:28.722Z,11.03
2022-12-04T12:57:01.910Z,9.73
2022-12-04T12:59:38.743Z,10.73
2022-12-04T13:02:14.411Z,10.90
2022-12-04T13:04:51.705Z,11.10
2022-12-04T13:07:28.995Z,10.67
2022-12-04T13:10:10.731Z,11.00
2022-12-04T13:12:50.228Z,11.10
2022-12-04T13:15:26.704Z,11.37
2022-12-04T13:17:57.397Z,11.27
2022-12-04T13:20:36.733Z,12.23
2022-12-04T13:23:19.653Z,11.07
2022-12-04T13:26:06.779Z,11.47
2022-12-04T13:28:48.658Z,10.83
2022-12-04T13:31:32.813Z,12.00
2022-12-04T13:34:12.620Z,11.00
2022-12-04T13:37:16.806Z,11.73
2022-12-04T13:40:18.326Z,11.47
2022-12-04T13:42:54.806Z,11.63
2022-12-04T13:45:28.799Z,11.27
2022-12-04T13:48:08.769Z,12.10
2022-12-04T13:50:37.980Z,12.03
2022-12-04T13:53:12.755Z,12.20
2022-12-04T13:55:41.734Z,12.00
2022-12-04T14:01:53.205Z,12.17
2022-12-04T14:04:36.120Z,11.53
2022-12-04T14:07:05.287Z,12.00
2022-12-04T14:09:48.110Z,11.23
2022-12-04T14:12:18.402Z,12.70
2022-12-04T14:15:01.135Z,13.03
2022-12-04T14:17:34.508Z,11.87
2022-12-04T14:20:10.143Z,11.13
2022-12-04T14:22:44.780Z,11.50
2022-12-04T14:25:42.152Z,12.97
2022-12-04T14:28:16.003Z,11.47
2022-12-04T14:30:52.203Z,12.50
2022-12-04T14:33:23.794Z,13.13
2022-12-04T14:36:07.135Z,11.83
2022-12-04T14:38:35.452Z,12.50
2022-12-04T14:41:11.139Z,13.33
2022-12-04T14:43:40.953Z,13.20
2022-12-04T14:46:23.196Z,12.27
2022-12-04T14:49:01.671Z,12.07
2022-12-04T14:51:42.199Z,12.90
2022-12-04T14:54:19.463Z,12.53
2022-12-04T14:57:15.150Z,12.50
2022-12-04T15:00:05.291Z,12.30
2022-12-04T15:02:46.151Z,11.40
2022-12-04T15:05:23.464Z,12.47
2022-12-04T15:08:00.319Z,12.03
2022-12-04T15:10:47.532Z,12.67
2022-12-04T15:13:33.165Z,12.67
2022-12-04T15:16:10.753Z,12.00
2022-12-04T15:18:45.185Z,12.93
2022-12-04T15:21:14.654Z,12.77
2022-12-04T15:23:49.187Z,12.63
2022-12-04T15:26:20.916Z,12.60
2022-12-04T15:28:58.220Z,12.13
2022-12-04T15:31:32.811Z,12.00
2022-12-04T15:34:10.332Z,12.33
2022-12-04T15:36:45.998Z,11.93
2022-12-04T15:39:24.172Z,12.20
2022-12-04T15:41:52.574Z,11.20
2022-12-04T15:44:35.209Z,12.40
2022-12-04T15:47:16.048Z,12.23
2022-12-04T15:49:50.203Z,12.80
2022-12-04T15:52:21.457Z,12.90
2022-12-04T15:55:01.247Z,13.47
2022-12-04T15:57:31.278Z,12.30
2022-12-04T16:00:27.201Z,12.83
2022-12-04T16:03:02.400Z,11.43
2022-12-04T16:05:42.229Z,12.83
2022-12-04T16:08:25.870Z,13.17
2022-12-04T16:11:06.231Z,12.00
2022-12-04T16:13:36.232Z,12.77
2022-12-04T16:16:14.278Z,11.93
2022-12-04T16:18:43.228Z,12.90
2022-12-04T16:21:23.210Z,13.10
2022-12-04T16:23:52.627Z,12.70
2022-12-04T16:26:28.226Z,12.93
2022-12-04T16:28:56.311Z,13.20
2022-12-04T16:31:32.298Z,13.60
2022-12-04T16:34:00.742Z,13.80
2022-12-04T16:36:35.263Z,13.40
2022-12-04T16:39:05.085Z,13.97
2022-12-04T16:41:39.251Z,14.80
2022-12-04T16:44:14.536Z,14.10
2022-12-04T16:46:49.271Z,14.23
2022-12-04T16:49:18.657Z,14.00
2022-12-04T16:51:56.242Z,15.80
2022-12-04T16:54:25.717Z,16.10
2022-12-04T16:57:00.236Z,16.60
2022-12-04T16:59:48.299Z,16.90
2022-12-04T17:02:28.269Z,16.93
2022-12-04T17:04:58.013Z,17.30
2022-12-04T17:07:33.306Z,17.90
2022-12-04T17:10:02.831Z,17.80
2022-12-04T17:12:37.324Z,18.10
2022-12-04T17:15:05.989Z,18.30
2022-12-04T17:17:40.326Z,17.83
2022-12-04T17:20:11.915Z,18.23
2022-12-04T17:22:47.285Z,18.67
2022-12-04T17:25:17.627Z,18.40
2022-12-04T17:27:53.274Z,17.97
2022-12-04T17:30:21.452Z,17.27
2022-12-04T17:32:56.295Z,18.57
2022-12-04T17:35:24.579Z,18.90
2022-12-04T17:38:05.405Z,18.60
2022-12-04T17:40:35.500Z,19.23
2022-12-04T17:43:10.295Z,18.53
2022-12-04T17:45:41.280Z,18.27
2022-12-04T17:48:16.322Z,17.40
2022-12-04T17:50:44.419Z,19.50
2022-12-04T17:53:19.343Z,17.03
2022-12-04T17:55:50.937Z,17.77
2022-12-04T17:58:25.324Z,18.50
2022-12-04T18:01:17.408Z,18.27
2022-12-04T18:03:56.456Z,18.10
2022-12-04T18:06:26.414Z,17.50
2022-12-04T18:09:01.324Z,18.53
2022-12-04T18:11:32.593Z,17.90
2022-12-04T18:14:12.175Z,17.43
2022-12-04T18:16:42.530Z,17.67
2022-12-04T18:19:17.348Z,17.97
2022-12-04T18:21:45.429Z,18.00
2022-12-04T18:24:20.347Z,17.57
2022-12-04T18:26:51.184Z,18.90
2022-12-04T18:29:28.318Z,17.67
2022-12-04T18:31:56.697Z,17.83
2022-12-04T18:34:32.594Z,19.47
2022-12-04T18:37:00.953Z,19.50
2022-12-04T18:39:35.341Z,18.57
2022-12-04T18:42:05.076Z,19.67
2022-12-04T18:44:39.374Z,19.67
2022-12-04T18:47:07.617Z,19.77
2022-12-04T18:49:42.349Z,18.90
2022-12-04T18:52:10.388Z,19.63
2022-12-04T18:54:45.378Z,20.17
2022-12-04T18:57:14.911Z,19.43
2022-12-04T18:59:49.428Z,19.13
2022-12-04T19:02:30.488Z,19.93
2022-12-04T19:04:58.633Z,19.27
2022-12-04T19:07:33.392Z,19.87
2022-12-04T19:10:16.833Z,19.87
2022-12-04T19:12:52.366Z,21.03
2022-12-04T19:15:21.163Z,21.27
2022-12-04T19:17:55.383Z,20.30
2022-12-04T19:20:23.523Z,20.13
2022-12-04T19:22:58.370Z,19.17
2022-12-04T19:25:26.457Z,20.43
2022-12-04T19:28:03.015Z,20.63
2022-12-04T19:30:33.096Z,21.03
2022-12-04T19:33:08.431Z,20.87
2022-12-04T19:35:36.479Z,22.70
2022-12-04T19:38:11.391Z,22.43
2022-12-04T19:40:39.583Z,22.93
2022-12-04T19:43:15.390Z,23.60
2022-12-04T19:45:48.939Z,23.67
2022-12-04T19:48:23.576Z,24.60
2022-12-04T19:50:51.652Z,23.67
2022-12-04T19:53:26.403Z,24.43
2022-12-04T19:55:54.500Z,24.83
2022-12-04T19:58:32.406Z,24.33
2022-12-04T20:01:06.863Z,26.50
2022-12-04T20:03:48.404Z,26.87
2022-12-04T20:06:18.063Z,26.53
2022-12-04T20:08:53.395Z,30.23
2022-12-04T20:11:21.786Z,26.17
2022-12-04T20:14:02.450Z,28.53
2022-12-04T20:16:32.580Z,29.40
2022-12-04T20:19:02.271Z,30.70
2022-12-04T20:21:39.419Z,32.87
2022-12-04T20:24:08.582Z,34.40
2022-12-04T20:26:46.411Z,31.70
2022-12-04T20:29:19.106Z,32.70
2022-12-04T20:31:54.433Z,32.23
2022-12-04T20:34:22.517Z,31.27
2022-12-04T20:36:57.447Z,31.20
2022-12-04T20:39:25.677Z,31.90
2022-12-04T20:42:00.465Z,31.30
2022-12-04T20:44:29.907Z,32.30
2022-12-04T20:47:06.446Z,31.60
2022-12-04T20:49:34.596Z,31.13
2022-12-04T20:52:09.434Z,31.73
2022-12-04T20:54:41.335Z,31.83
2022-12-04T20:57:16.441Z,31.77
2022-12-04T20:59:45.856Z,33.00
2022-12-04T21:02:27.483Z,31.53
2022-12-04T21:04:55.747Z,31.57
2022-12-04T21:07:30.497Z,29.20
2022-12-04T21:09:59.894Z,29.67
2022-12-04T21:12:52.460Z,30.40
2022-12-04T21:15:39.563Z,28.27
2022-12-04T21:18:14.469Z,30.53
2022-12-04T21:20:42.522Z,31.33
2022-12-04T21:23:17.489Z,31.70
2022-12-04T21:25:45.565Z,32.47
2022-12-04T21:28:20.487Z,30.77
2022-12-04T21:30:50.010Z,31.13
2022-12-04T21:33:24.496Z,31.73
2022-12-04T21:35:52.569Z,30.73
2022-12-04T21:38:27.469Z,31.33
2022-12-04T21:40:55.526Z,32.33
2022-12-04T21:43:30.503Z,30.73
2022-12-04T21:46:07.488Z,31.90
2022-12-04T21:48:43.496Z,29.53
2022-12-04T21:51:32.739Z,32.50
2022-12-04T21:54:06.527Z,31.87
2022-12-04T21:56:34.811Z,31.77
2022-12-04T21:59:09.506Z,31.57
2022-12-04T22:01:45.956Z,31.20
2022-12-04T22:04:20.502Z,31.43
2022-12-04T22:06:48.561Z,32.50
2022-12-04T22:09:23.507Z,32.73
2022-12-04T22:11:53.183Z,32.93
2022-12-04T22:14:27.526Z,28.77
2022-12-04T22:16:56.945Z,31.57
2022-12-04T22:19:31.527Z,31.30
2022-12-04T22:21:59.599Z,33.80
2022-12-04T22:24:34.504Z,32.07
2022-12-04T22:27:02.551Z,31.73
2022-12-04T22:29:52.772Z,30.00
2022-12-04T22:32:22.197Z,31.93
2022-12-04T22:34:56.526Z,30.97
2022-12-04T22:37:25.323Z,31.33
2022-12-04T22:39:59.779Z,32.27
2022-12-04T22:42:27.968Z,32.20
2022-12-04T22:45:02.533Z,32.60
2022-12-04T22:47:31.977Z,33.23
2022-12-04T22:50:06.568Z,33.47
2022-12-04T22:52:34.645Z,32.00
2022-12-04T22:55:09.569Z,32.30
2022-12-04T22:57:37.636Z,32.87
2022-12-04T23:00:15.564Z,32.40
2022-12-04T23:02:51.804Z,32.23
2022-12-04T23:05:26.621Z,33.03
2022-12-04T23:07:54.748Z,32.27
2022-12-04T23:10:29.543Z,32.63
2022-12-04T23:12:57.606Z,32.50
2022-12-04T23:15:32.571Z,33.77
2022-12-04T23:18:02.020Z,34.53
2022-12-04T23:20:36.556Z,31.70
2022-12-04T23:23:04.626Z,33.83
2022-12-04T23:25:39.577Z,32.87
2022-12-04T23:28:07.636Z,33.47
2022-12-04T23:30:42.596Z,31.67
2022-12-04T23:33:11.984Z,33.20
2022-12-04T23:35:46.584Z,31.90
2022-12-04T23:38:14.648Z,32.50
2022-12-04T23:40:49.586Z,32.43
2022-12-04T23:43:18.122Z,33.40
2022-12-04T23:45:52.606Z,33.40
2022-12-04T23:48:21.998Z,33.20
2022-12-04T23:50:56.618Z,33.20
2022-12-04T23:53:24.844Z,33.03
2022-12-04T23:56:06.577Z,34.43
2022-12-04T23:58:35.937Z,32.47
